sensor_id;sensor_type;location;lat;lon;timestamp;temperature;humidity
70051;SHT30;57391;51.306;22.680;2022-08-25T00:02:10;22.35;67.99
70051;SHT30;57391;51.306;22.680;2022-08-25T00:04:37;22.35;68.01
70051;SHT30;57391;51.306;22.680;2022-08-25T00:07:04;22.36;68.03
70051;SHT30;57391;51.306;22.680;2022-08-25T00:09:32;22.36;68.07
70051;SHT30;57391;51.306;22.680;2022-08-25T00:12:00;22.36;68.05
70051;SHT30;57391;51.306;22.680;2022-08-25T00:14:32;22.36;68.16
70051;SHT30;57391;51.306;22.680;2022-08-25T00:17:02;22.35;68.20
70051;SHT30;57391;51.306;22.680;2022-08-25T00:19:33;22.32;68.17
70051;SHT30;57391;51.306;22.680;2022-08-25T00:22:03;22.29;68.25
70051;SHT30;57391;51.306;22.680;2022-08-25T00:24:31;22.25;68.34
70051;SHT30;57391;51.306;22.680;2022-08-25T00:26:59;22.14;68.54
70051;SHT30;57391;51.306;22.680;2022-08-25T00:29:27;22.04;68.80
70051;SHT30;57391;51.306;22.680;2022-08-25T00:31:56;21.94;69.09
70051;SHT30;57391;51.306;22.680;2022-08-25T00:34:27;21.86;69.38
70051;SHT30;57391;51.306;22.680;2022-08-25T00:37:00;21.81;69.57
70051;SHT30;57391;51.306;22.680;2022-08-25T00:39:29;21.77;69.77
70051;SHT30;57391;51.306;22.680;2022-08-25T00:41:56;21.74;69.95
70051;SHT30;57391;51.306;22.680;2022-08-25T00:44:25;21.72;70.12
70051;SHT30;57391;51.306;22.680;2022-08-25T00:47:00;21.69;70.23
70051;SHT30;57391;51.306;22.680;2022-08-25T00:49:36;21.66;70.36
70051;SHT30;57391;51.306;22.680;2022-08-25T00:52:10;21.64;70.49
70051;SHT30;57391;51.306;22.680;2022-08-25T00:55:02;21.62;70.55
70051;SHT30;57391;51.306;22.680;2022-08-25T00:57:41;21.61;70.64
70051;SHT30;57391;51.306;22.680;2022-08-25T01:00:16;21.59;70.72
70051;SHT30;57391;51.306;22.680;2022-08-25T01:03:05;21.57;70.80
70051;SHT30;57391;51.306;22.680;2022-08-25T01:05:33;21.55;70.85
70051;SHT30;57391;51.306;22.680;2022-08-25T01:08:02;21.54;70.97
70051;SHT30;57391;51.306;22.680;2022-08-25T01:10:33;21.51;71.01
70051;SHT30;57391;51.306;22.680;2022-08-25T01:13:14;21.46;71.12
70051;SHT30;57391;51.306;22.680;2022-08-25T01:15:49;21.43;71.23
70051;SHT30;57391;51.306;22.680;2022-08-25T01:18:21;21.40;71.35
70051;SHT30;57391;51.306;22.680;2022-08-25T01:20:51;21.36;71.43
70051;SHT30;57391;51.306;22.680;2022-08-25T01:23:23;21.34;71.58
70051;SHT30;57391;51.306;22.680;2022-08-25T01:25:55;21.32;71.60
70051;SHT30;57391;51.306;22.680;2022-08-25T01:28:35;21.30;71.66
70051;SHT30;57391;51.306;22.680;2022-08-25T01:31:24;21.28;71.80
70051;SHT30;57391;51.306;22.680;2022-08-25T01:33:53;21.24;71.92
70051;SHT30;57391;51.306;22.680;2022-08-25T01:36:20;21.20;72.02
70051;SHT30;57391;51.306;22.680;2022-08-25T01:38:49;21.15;72.12
70051;SHT30;57391;51.306;22.680;2022-08-25T01:41:40;21.13;72.13
70051;SHT30;57391;51.306;22.680;2022-08-25T01:44:16;21.11;72.19
70051;SHT30;57391;51.306;22.680;2022-08-25T01:46:44;21.09;72.26
70051;SHT30;57391;51.306;22.680;2022-08-25T01:49:11;21.07;72.36
70051;SHT30;57391;51.306;22.680;2022-08-25T01:51:42;21.05;72.45
70051;SHT30;57391;51.306;22.680;2022-08-25T01:54:16;21.04;72.51
70051;SHT30;57391;51.306;22.680;2022-08-25T01:56:43;21.02;72.59
70051;SHT30;57391;51.306;22.680;2022-08-25T01:59:10;21.02;72.63
70051;SHT30;57391;51.306;22.680;2022-08-25T02:01:43;21.00;72.71
70051;SHT30;57391;51.306;22.680;2022-08-25T02:04:10;20.98;72.74
70051;SHT30;57391;51.306;22.680;2022-08-25T02:06:37;20.97;72.78
70051;SHT30;57391;51.306;22.680;2022-08-25T02:09:07;20.97;72.80
70051;SHT30;57391;51.306;22.680;2022-08-25T02:11:41;20.95;72.81
70051;SHT30;57391;51.306;22.680;2022-08-25T02:14:12;20.94;72.86
70051;SHT30;57391;51.306;22.680;2022-08-25T02:16:43;20.90;72.91
70051;SHT30;57391;51.306;22.680;2022-08-25T02:19:15;20.86;73.02
70051;SHT30;57391;51.306;22.680;2022-08-25T02:21:44;20.81;73.08
70051;SHT30;57391;51.306;22.680;2022-08-25T02:24:11;20.77;73.22
70051;SHT30;57391;51.306;22.680;2022-08-25T02:26:39;20.74;73.30
70051;SHT30;57391;51.306;22.680;2022-08-25T02:29:07;20.71;73.34
70051;SHT30;57391;51.306;22.680;2022-08-25T02:31:35;20.69;73.41
70051;SHT30;57391;51.306;22.680;2022-08-25T02:34:04;20.67;73.48
70051;SHT30;57391;51.306;22.680;2022-08-25T02:36:33;20.66;73.51
70051;SHT30;57391;51.306;22.680;2022-08-25T02:39:02;20.65;73.55
70051;SHT30;57391;51.306;22.680;2022-08-25T02:41:34;20.63;73.61
70051;SHT30;57391;51.306;22.680;2022-08-25T02:44:02;20.60;73.64
70051;SHT30;57391;51.306;22.680;2022-08-25T02:46:32;20.58;73.70
70051;SHT30;57391;51.306;22.680;2022-08-25T02:48:59;20.56;73.75
70051;SHT30;57391;51.306;22.680;2022-08-25T02:51:27;20.52;73.79
70051;SHT30;57391;51.306;22.680;2022-08-25T02:53:56;20.49;73.89
70051;SHT30;57391;51.306;22.680;2022-08-25T02:56:28;20.46;73.99
70051;SHT30;57391;51.306;22.680;2022-08-25T02:58:56;20.43;74.05
70051;SHT30;57391;51.306;22.680;2022-08-25T03:01:24;20.40;74.08
70051;SHT30;57391;51.306;22.680;2022-08-25T03:03:51;20.36;74.22
70051;SHT30;57391;51.306;22.680;2022-08-25T03:06:19;20.29;74.34
70051;SHT30;57391;51.306;22.680;2022-08-25T03:08:50;20.23;74.39
70051;SHT30;57391;51.306;22.680;2022-08-25T03:11:19;20.20;74.44
70051;SHT30;57391;51.306;22.680;2022-08-25T03:13:47;20.15;74.51
70051;SHT30;57391;51.306;22.680;2022-08-25T03:16:17;20.11;74.65
70051;SHT30;57391;51.306;22.680;2022-08-25T03:18:44;20.04;74.75
70051;SHT30;57391;51.306;22.680;2022-08-25T03:21:12;19.99;74.86
70051;SHT30;57391;51.306;22.680;2022-08-25T03:23:40;19.96;75.01
70051;SHT30;57391;51.306;22.680;2022-08-25T03:26:09;19.89;75.18
70051;SHT30;57391;51.306;22.680;2022-08-25T03:28:55;19.82;75.31
70051;SHT30;57391;51.306;22.680;2022-08-25T03:31:23;19.79;75.47
70051;SHT30;57391;51.306;22.680;2022-08-25T03:33:53;19.77;75.41
70051;SHT30;57391;51.306;22.680;2022-08-25T03:36:21;19.77;75.42
70051;SHT30;57391;51.306;22.680;2022-08-25T03:38:50;19.78;75.46
70051;SHT30;57391;51.306;22.680;2022-08-25T03:41:23;19.77;75.50
70051;SHT30;57391;51.306;22.680;2022-08-25T03:43:58;19.76;75.55
70051;SHT30;57391;51.306;22.680;2022-08-25T03:46:30;19.78;75.67
70051;SHT30;57391;51.306;22.680;2022-08-25T03:49:07;19.79;75.69
70051;SHT30;57391;51.306;22.680;2022-08-25T03:51:39;19.77;75.71
70051;SHT30;57391;51.306;22.680;2022-08-25T03:54:13;19.71;75.68
70051;SHT30;57391;51.306;22.680;2022-08-25T03:56:43;19.71;75.70
70051;SHT30;57391;51.306;22.680;2022-08-25T03:59:11;19.73;75.71
70051;SHT30;57391;51.306;22.680;2022-08-25T04:01:38;19.74;75.72
70051;SHT30;57391;51.306;22.680;2022-08-25T04:04:08;19.82;75.66
70051;SHT30;57391;51.306;22.680;2022-08-25T04:06:38;19.95;75.46
70051;SHT30;57391;51.306;22.680;2022-08-25T04:09:07;20.10;75.10
70051;SHT30;57391;51.306;22.680;2022-08-25T04:11:35;20.16;74.85
70051;SHT30;57391;51.306;22.680;2022-08-25T04:14:02;20.27;74.64
70051;SHT30;57391;51.306;22.680;2022-08-25T04:16:32;20.49;74.27
70051;SHT30;57391;51.306;22.680;2022-08-25T04:19:01;21.03;73.31
70051;SHT30;57391;51.306;22.680;2022-08-25T04:21:32;21.73;71.86
70051;SHT30;57391;51.306;22.680;2022-08-25T04:24:00;22.49;70.26
70051;SHT30;57391;51.306;22.680;2022-08-25T04:26:37;23.28;68.41
70051;SHT30;57391;51.306;22.680;2022-08-25T04:29:09;24.01;66.41
70051;SHT30;57391;51.306;22.680;2022-08-25T04:31:40;24.73;64.46
70051;SHT30;57391;51.306;22.680;2022-08-25T04:34:12;25.55;62.41
70051;SHT30;57391;51.306;22.680;2022-08-25T04:36:39;26.39;60.35
70051;SHT30;57391;51.306;22.680;2022-08-25T04:39:06;27.11;58.33
70051;SHT30;57391;51.306;22.680;2022-08-25T04:41:34;27.71;56.68
70051;SHT30;57391;51.306;22.680;2022-08-25T04:44:01;28.27;55.10
70051;SHT30;57391;51.306;22.680;2022-08-25T04:46:30;28.78;53.71
70051;SHT30;57391;51.306;22.680;2022-08-25T04:48:59;28.99;52.64
70051;SHT30;57391;51.306;22.680;2022-08-25T04:51:38;28.90;52.21
70051;SHT30;57391;51.306;22.680;2022-08-25T04:54:09;28.73;51.82
70051;SHT30;57391;51.306;22.680;2022-08-25T04:56:42;28.52;51.92
70051;SHT30;57391;51.306;22.680;2022-08-25T04:59:11;28.31;52.07
70051;SHT30;57391;51.306;22.680;2022-08-25T05:01:40;28.07;52.63
70051;SHT30;57391;51.306;22.680;2022-08-25T05:04:12;27.81;52.88
70051;SHT30;57391;51.306;22.680;2022-08-25T05:06:41;27.87;52.78
70051;SHT30;57391;51.306;22.680;2022-08-25T05:09:09;27.68;53.02
70051;SHT30;57391;51.306;22.680;2022-08-25T05:11:37;27.70;53.27
70051;SHT30;57391;51.306;22.680;2022-08-25T05:14:04;27.77;52.91
70051;SHT30;57391;51.306;22.680;2022-08-25T05:16:37;28.08;52.40
70051;SHT30;57391;51.306;22.680;2022-08-25T05:19:05;28.95;50.94
70051;SHT30;57391;51.306;22.680;2022-08-25T05:21:33;29.54;49.47
70051;SHT30;57391;51.306;22.680;2022-08-25T05:24:00;29.28;49.72
70051;SHT30;57391;51.306;22.680;2022-08-25T05:26:30;28.82;50.36
70051;SHT30;57391;51.306;22.680;2022-08-25T05:29:00;28.37;50.71
70051;SHT30;57391;51.306;22.680;2022-08-25T05:31:30;28.25;50.99
70051;SHT30;57391;51.306;22.680;2022-08-25T05:33:58;28.85;50.26
70051;SHT30;57391;51.306;22.680;2022-08-25T05:36:26;29.38;49.55
70051;SHT30;57391;51.306;22.680;2022-08-25T05:38:54;29.15;49.46
70051;SHT30;57391;51.306;22.680;2022-08-25T05:41:24;28.72;50.04
70051;SHT30;57391;51.306;22.680;2022-08-25T05:43:55;28.27;50.12
70051;SHT30;57391;51.306;22.680;2022-08-25T05:46:23;28.00;50.52
70051;SHT30;57391;51.306;22.680;2022-08-25T05:48:52;28.45;49.92
70051;SHT30;57391;51.306;22.680;2022-08-25T05:51:20;29.07;48.43
70051;SHT30;57391;51.306;22.680;2022-08-25T05:53:48;29.41;47.43
70051;SHT30;57391;51.306;22.680;2022-08-25T05:56:16;29.40;47.60
70051;SHT30;57391;51.306;22.680;2022-08-25T05:58:44;29.01;48.27
70051;SHT30;57391;51.306;22.680;2022-08-25T06:01:20;28.43;48.96
70051;SHT30;57391;51.306;22.680;2022-08-25T06:04:10;28.06;50.42
70051;SHT30;57391;51.306;22.680;2022-08-25T06:06:39;27.97;50.40
70051;SHT30;57391;51.306;22.680;2022-08-25T06:09:06;28.51;49.73
70051;SHT30;57391;51.306;22.680;2022-08-25T06:11:35;29.18;48.71
70051;SHT30;57391;51.306;22.680;2022-08-25T06:14:05;29.87;47.41
70051;SHT30;57391;51.306;22.680;2022-08-25T06:16:34;30.38;45.04
70051;SHT30;57391;51.306;22.680;2022-08-25T06:19:02;30.31;44.19
70051;SHT30;57391;51.306;22.680;2022-08-25T06:21:29;29.90;45.11
70051;SHT30;57391;51.306;22.680;2022-08-25T06:23:57;29.47;45.64
70051;SHT30;57391;51.306;22.680;2022-08-25T06:26:24;29.26;46.49
70051;SHT30;57391;51.306;22.680;2022-08-25T06:28:53;29.04;46.06
70051;SHT30;57391;51.306;22.680;2022-08-25T06:31:21;29.01;46.43
70051;SHT30;57391;51.306;22.680;2022-08-25T06:33:48;29.45;45.78
70051;SHT30;57391;51.306;22.680;2022-08-25T06:36:17;30.04;45.34
70051;SHT30;57391;51.306;22.680;2022-08-25T06:38:46;30.59;44.19
70051;SHT30;57391;51.306;22.680;2022-08-25T06:41:13;31.07;43.39
70051;SHT30;57391;51.306;22.680;2022-08-25T06:43:42;31.59;42.82
70051;SHT30;57391;51.306;22.680;2022-08-25T06:46:11;32.11;41.29
70051;SHT30;57391;51.306;22.680;2022-08-25T06:48:41;32.35;40.28
70051;SHT30;57391;51.306;22.680;2022-08-25T06:51:10;32.52;40.28
70051;SHT30;57391;51.306;22.680;2022-08-25T06:53:41;32.66;39.43
70051;SHT30;57391;51.306;22.680;2022-08-25T06:56:11;32.55;38.82
70051;SHT30;57391;51.306;22.680;2022-08-25T06:58:38;32.41;39.41
70051;SHT30;57391;51.306;22.680;2022-08-25T07:01:25;32.21;40.01
70051;SHT30;57391;51.306;22.680;2022-08-25T07:03:54;31.79;40.22
70051;SHT30;57391;51.306;22.680;2022-08-25T07:06:28;31.45;40.58
70051;SHT30;57391;51.306;22.680;2022-08-25T07:08:58;31.57;41.20
70051;SHT30;57391;51.306;22.680;2022-08-25T07:11:25;31.84;40.16
70051;SHT30;57391;51.306;22.680;2022-08-25T07:13:53;31.97;38.99
70051;SHT30;57391;51.306;22.680;2022-08-25T07:16:21;32.24;39.22
70051;SHT30;57391;51.306;22.680;2022-08-25T07:18:48;32.69;38.99
70051;SHT30;57391;51.306;22.680;2022-08-25T07:21:15;33.20;38.17
70051;SHT30;57391;51.306;22.680;2022-08-25T07:23:42;33.56;36.34
70051;SHT30;57391;51.306;22.680;2022-08-25T07:26:32;33.72;35.95
70051;SHT30;57391;51.306;22.680;2022-08-25T07:29:09;33.99;35.65
70051;SHT30;57391;51.306;22.680;2022-08-25T07:31:48;34.22;35.37
70051;SHT30;57391;51.306;22.680;2022-08-25T07:34:16;34.44;34.84
70051;SHT30;57391;51.306;22.680;2022-08-25T07:37:01;34.70;34.15
70051;SHT30;57391;51.306;22.680;2022-08-25T07:39:32;34.81;33.44
70051;SHT30;57391;51.306;22.680;2022-08-25T07:42:00;34.80;33.73
70051;SHT30;57391;51.306;22.680;2022-08-25T07:44:27;34.73;34.24
70051;SHT30;57391;51.306;22.680;2022-08-25T07:46:54;34.59;33.62
70051;SHT30;57391;51.306;22.680;2022-08-25T07:49:22;34.28;33.70
70051;SHT30;57391;51.306;22.680;2022-08-25T07:51:52;34.06;34.63
70051;SHT30;57391;51.306;22.680;2022-08-25T07:54:20;33.95;34.81
70051;SHT30;57391;51.306;22.680;2022-08-25T07:56:49;33.90;35.10
70051;SHT30;57391;51.306;22.680;2022-08-25T07:59:16;33.88;34.09
70051;SHT30;57391;51.306;22.680;2022-08-25T08:01:44;33.81;33.19
70051;SHT30;57391;51.306;22.680;2022-08-25T08:04:12;33.68;33.08
70051;SHT30;57391;51.306;22.680;2022-08-25T08:06:39;33.66;32.47
70051;SHT30;57391;51.306;22.680;2022-08-25T08:09:06;33.58;32.61
70051;SHT30;57391;51.306;22.680;2022-08-25T08:11:34;33.59;33.67
70051;SHT30;57391;51.306;22.680;2022-08-25T08:14:06;33.61;33.63
70051;SHT30;57391;51.306;22.680;2022-08-25T08:16:33;33.66;34.36
70051;SHT30;57391;51.306;22.680;2022-08-25T08:19:01;33.72;34.21
70051;SHT30;57391;51.306;22.680;2022-08-25T08:21:31;33.78;33.68
70051;SHT30;57391;51.306;22.680;2022-08-25T08:24:01;33.89;32.86
70051;SHT30;57391;51.306;22.680;2022-08-25T08:26:30;34.00;32.67
70051;SHT30;57391;51.306;22.680;2022-08-25T08:28:58;34.08;32.99
70051;SHT30;57391;51.306;22.680;2022-08-25T08:31:26;34.22;34.21
70051;SHT30;57391;51.306;22.680;2022-08-25T08:33:54;34.44;33.93
70051;SHT30;57391;51.306;22.680;2022-08-25T08:36:23;34.50;33.03
70051;SHT30;57391;51.306;22.680;2022-08-25T08:38:51;34.47;32.80
70051;SHT30;57391;51.306;22.680;2022-08-25T08:55:59;33.81;30.31
70051;SHT30;57391;51.306;22.680;2022-08-25T09:01:36;33.63;29.92
70051;SHT30;57391;51.306;22.680;2022-08-25T09:06:44;33.72;30.00
70051;SHT30;57391;51.306;22.680;2022-08-25T09:09:15;33.76;29.91
70051;SHT30;57391;51.306;22.680;2022-08-25T09:23:38;33.38;26.27
70051;SHT30;57391;51.306;22.680;2022-08-25T09:29:50;33.19;27.69
70051;SHT30;57391;51.306;22.680;2022-08-25T09:32:31;33.27;27.90
70051;SHT30;57391;51.306;22.680;2022-08-25T09:35:23;33.46;28.45
70051;SHT30;57391;51.306;22.680;2022-08-25T09:37:58;33.62;28.20
70051;SHT30;57391;51.306;22.680;2022-08-25T09:40:31;33.75;29.00
70051;SHT30;57391;51.306;22.680;2022-08-25T09:43:03;33.90;27.30
70051;SHT30;57391;51.306;22.680;2022-08-25T09:45:47;33.90;26.62
70051;SHT30;57391;51.306;22.680;2022-08-25T09:48:26;33.84;27.03
70051;SHT30;57391;51.306;22.680;2022-08-25T09:54:02;34.04;27.80
70051;SHT30;57391;51.306;22.680;2022-08-25T09:56:50;34.14;27.34
70051;SHT30;57391;51.306;22.680;2022-08-25T09:59:25;34.24;26.78
70051;SHT30;57391;51.306;22.680;2022-08-25T10:02:04;34.30;26.75
70051;SHT30;57391;51.306;22.680;2022-08-25T10:04:51;34.14;25.55
70051;SHT30;57391;51.306;22.680;2022-08-25T10:07:20;33.96;26.03
70051;SHT30;57391;51.306;22.680;2022-08-25T10:10:02;33.88;26.74
70051;SHT30;57391;51.306;22.680;2022-08-25T10:12:44;33.87;26.35
70051;SHT30;57391;51.306;22.680;2022-08-25T10:15:25;33.88;26.90
70051;SHT30;57391;51.306;22.680;2022-08-25T10:21:12;33.71;25.91
70051;SHT30;57391;51.306;22.680;2022-08-25T10:23:48;33.67;26.32
70051;SHT30;57391;51.306;22.680;2022-08-25T10:32:08;33.46;25.83
70051;SHT30;57391;51.306;22.680;2022-08-25T10:35:11;33.33;25.50
70051;SHT30;57391;51.306;22.680;2022-08-25T10:46:25;33.24;26.97
70051;SHT30;57391;51.306;22.680;2022-08-25T10:49:17;33.33;26.82
70051;SHT30;57391;51.306;22.680;2022-08-25T11:00:08;33.31;26.57
70051;SHT30;57391;51.306;22.680;2022-08-25T11:05:30;33.25;27.36
70051;SHT30;57391;51.306;22.680;2022-08-25T11:08:11;33.27;27.71
70051;SHT30;57391;51.306;22.680;2022-08-25T11:13:56;33.16;28.35
70051;SHT30;57391;51.306;22.680;2022-08-25T11:19:31;33.11;28.06
70051;SHT30;57391;51.306;22.680;2022-08-25T11:22:11;33.13;27.98
70051;SHT30;57391;51.306;22.680;2022-08-25T11:31:10;32.87;27.64
70051;SHT30;57391;51.306;22.680;2022-08-25T11:33:40;32.78;28.07
70051;SHT30;57391;51.306;22.680;2022-08-25T11:39:14;32.63;28.34
70051;SHT30;57391;51.306;22.680;2022-08-25T11:51:29;32.82;29.55
70051;SHT30;57391;51.306;22.680;2022-08-25T11:57:05;32.73;28.44
70051;SHT30;57391;51.306;22.680;2022-08-25T12:09:14;32.68;28.69
70051;SHT30;57391;51.306;22.680;2022-08-25T12:11:50;32.61;28.84
70051;SHT30;57391;51.306;22.680;2022-08-25T12:30:27;32.43;29.82
70051;SHT30;57391;51.306;22.680;2022-08-25T12:36:40;32.41;30.73
70051;SHT30;57391;51.306;22.680;2022-08-25T12:39:42;32.35;30.40
70051;SHT30;57391;51.306;22.680;2022-08-25T12:42:34;32.31;30.21
70051;SHT30;57391;51.306;22.680;2022-08-25T12:45:32;32.25;29.89
70051;SHT30;57391;51.306;22.680;2022-08-25T12:53:51;32.22;29.29
70051;SHT30;57391;51.306;22.680;2022-08-25T12:56:40;32.22;28.98
70051;SHT30;57391;51.306;22.680;2022-08-25T12:59:19;32.23;28.40
70051;SHT30;57391;51.306;22.680;2022-08-25T13:11:26;32.30;29.44
70051;SHT30;57391;51.306;22.680;2022-08-25T13:17:01;32.35;29.80
70051;SHT30;57391;51.306;22.680;2022-08-25T13:19:28;32.34;29.29
70051;SHT30;57391;51.306;22.680;2022-08-25T13:21:56;32.25;28.87
70051;SHT30;57391;51.306;22.680;2022-08-25T13:27:04;32.20;29.40
70051;SHT30;57391;51.306;22.680;2022-08-25T13:29:47;32.17;29.32
70051;SHT30;57391;51.306;22.680;2022-08-25T13:32:25;32.16;29.12
70051;SHT30;57391;51.306;22.680;2022-08-25T13:37:49;32.08;29.55
70051;SHT30;57391;51.306;22.680;2022-08-25T13:40:26;32.06;29.61
70051;SHT30;57391;51.306;22.680;2022-08-25T13:42:58;32.06;30.13
70051;SHT30;57391;51.306;22.680;2022-08-25T13:45:31;32.06;29.82
70051;SHT30;57391;51.306;22.680;2022-08-25T13:48:07;32.05;29.04
70051;SHT30;57391;51.306;22.680;2022-08-25T13:50:37;32.01;29.21
70051;SHT30;57391;51.306;22.680;2022-08-25T13:53:23;32.00;29.70
70051;SHT30;57391;51.306;22.680;2022-08-25T13:55:54;32.01;30.30
70051;SHT30;57391;51.306;22.680;2022-08-25T13:58:34;32.04;30.00
70051;SHT30;57391;51.306;22.680;2022-08-25T14:01:24;32.04;29.58
70051;SHT30;57391;51.306;22.680;2022-08-25T14:03:55;32.03;30.25
70051;SHT30;57391;51.306;22.680;2022-08-25T14:07:03;32.07;29.29
70051;SHT30;57391;51.306;22.680;2022-08-25T14:16:10;31.84;29.08
70051;SHT30;57391;51.306;22.680;2022-08-25T14:18:51;31.82;28.71
70051;SHT30;57391;51.306;22.680;2022-08-25T14:21:24;31.74;28.63
70051;SHT30;57391;51.306;22.680;2022-08-25T14:23:55;31.67;28.56
70051;SHT30;57391;51.306;22.680;2022-08-25T14:26:24;31.59;28.93
70051;SHT30;57391;51.306;22.680;2022-08-25T14:28:52;31.53;28.66
70051;SHT30;57391;51.306;22.680;2022-08-25T14:31:24;31.47;28.44
70051;SHT30;57391;51.306;22.680;2022-08-25T14:33:57;31.41;28.53
70051;SHT30;57391;51.306;22.680;2022-08-25T14:36:28;31.38;28.53
70051;SHT30;57391;51.306;22.680;2022-08-25T14:38:58;31.34;28.89
70051;SHT30;57391;51.306;22.680;2022-08-25T14:41:32;31.32;28.80
70051;SHT30;57391;51.306;22.680;2022-08-25T14:44:03;31.28;28.73
70051;SHT30;57391;51.306;22.680;2022-08-25T14:46:32;31.23;28.17
70051;SHT30;57391;51.306;22.680;2022-08-25T14:49:05;31.17;28.29
70051;SHT30;57391;51.306;22.680;2022-08-25T14:51:37;31.15;29.08
70051;SHT30;57391;51.306;22.680;2022-08-25T14:54:10;31.11;29.45
70051;SHT30;57391;51.306;22.680;2022-08-25T14:56:44;31.08;29.66
70051;SHT30;57391;51.306;22.680;2022-08-25T14:59:13;31.07;29.20
70051;SHT30;57391;51.306;22.680;2022-08-25T15:01:41;31.07;29.25
70051;SHT30;57391;51.306;22.680;2022-08-25T15:04:13;31.04;29.03
70051;SHT30;57391;51.306;22.680;2022-08-25T15:06:44;31.04;29.40
70051;SHT30;57391;51.306;22.680;2022-08-25T15:09:15;31.01;29.29
70051;SHT30;57391;51.306;22.680;2022-08-25T15:11:44;30.98;29.82
70051;SHT30;57391;51.306;22.680;2022-08-25T15:14:18;30.97;29.50
70051;SHT30;57391;51.306;22.680;2022-08-25T15:16:49;30.97;29.92
70051;SHT30;57391;51.306;22.680;2022-08-25T15:19:21;30.96;29.56
70051;SHT30;57391;51.306;22.680;2022-08-25T15:21:52;30.94;30.10
70051;SHT30;57391;51.306;22.680;2022-08-25T15:24:20;30.93;29.15
70051;SHT30;57391;51.306;22.680;2022-08-25T15:26:52;30.89;28.32
70051;SHT30;57391;51.306;22.680;2022-08-25T15:29:22;30.84;28.14
70051;SHT30;57391;51.306;22.680;2022-08-25T15:31:55;30.78;28.79
70051;SHT30;57391;51.306;22.680;2022-08-25T15:34:25;30.72;29.34
70051;SHT30;57391;51.306;22.680;2022-08-25T15:36:53;30.65;29.35
70051;SHT30;57391;51.306;22.680;2022-08-25T15:39:21;30.59;29.42
70051;SHT30;57391;51.306;22.680;2022-08-25T15:41:48;30.51;28.73
70051;SHT30;57391;51.306;22.680;2022-08-25T15:44:18;30.43;28.70
70051;SHT30;57391;51.306;22.680;2022-08-25T15:46:46;30.36;28.86
70051;SHT30;57391;51.306;22.680;2022-08-25T15:49:13;30.28;28.93
70051;SHT30;57391;51.306;22.680;2022-08-25T15:51:40;30.21;29.82
70051;SHT30;57391;51.306;22.680;2022-08-25T15:54:08;30.14;29.59
70051;SHT30;57391;51.306;22.680;2022-08-25T15:56:35;30.06;29.73
70051;SHT30;57391;51.306;22.680;2022-08-25T15:59:03;30.01;29.92
70051;SHT30;57391;51.306;22.680;2022-08-25T16:01:31;29.97;30.11
70051;SHT30;57391;51.306;22.680;2022-08-25T16:03:58;29.92;30.62
70051;SHT30;57391;51.306;22.680;2022-08-25T16:06:25;29.87;31.15
70051;SHT30;57391;51.306;22.680;2022-08-25T16:08:53;29.81;31.37
70051;SHT30;57391;51.306;22.680;2022-08-25T16:11:22;29.76;31.70
70051;SHT30;57391;51.306;22.680;2022-08-25T16:13:54;29.70;31.83
70051;SHT30;57391;51.306;22.680;2022-08-25T16:16:24;29.64;31.72
70051;SHT30;57391;51.306;22.680;2022-08-25T16:18:54;29.60;31.92
70051;SHT30;57391;51.306;22.680;2022-08-25T16:21:30;29.55;31.64
70051;SHT30;57391;51.306;22.680;2022-08-25T16:24:04;29.51;31.33
70051;SHT30;57391;51.306;22.680;2022-08-25T16:26:33;29.42;31.21
70051;SHT30;57391;51.306;22.680;2022-08-25T16:29:03;29.34;31.38
70051;SHT30;57391;51.306;22.680;2022-08-25T16:31:31;29.27;31.49
70051;SHT30;57391;51.306;22.680;2022-08-25T16:33:58;29.21;31.70
70051;SHT30;57391;51.306;22.680;2022-08-25T16:36:27;29.15;31.86
70051;SHT30;57391;51.306;22.680;2022-08-25T16:38:55;29.08;32.13
70051;SHT30;57391;51.306;22.680;2022-08-25T16:41:24;29.03;32.22
70051;SHT30;57391;51.306;22.680;2022-08-25T16:44:01;28.96;32.28
70051;SHT30;57391;51.306;22.680;2022-08-25T16:46:33;28.89;32.47
70051;SHT30;57391;51.306;22.680;2022-08-25T16:49:03;28.81;32.85
70051;SHT30;57391;51.306;22.680;2022-08-25T16:51:32;28.73;33.17
70051;SHT30;57391;51.306;22.680;2022-08-25T16:53:59;28.64;33.36
70051;SHT30;57391;51.306;22.680;2022-08-25T16:56:45;28.55;33.80
70051;SHT30;57391;51.306;22.680;2022-08-25T16:59:13;28.46;34.08
70051;SHT30;57391;51.306;22.680;2022-08-25T17:01:40;28.41;34.25
70051;SHT30;57391;51.306;22.680;2022-08-25T17:04:09;28.36;34.55
70051;SHT30;57391;51.306;22.680;2022-08-25T17:06:38;28.31;34.98
70051;SHT30;57391;51.306;22.680;2022-08-25T17:09:10;28.26;35.22
70051;SHT30;57391;51.306;22.680;2022-08-25T17:11:48;28.24;35.85
70051;SHT30;57391;51.306;22.680;2022-08-25T17:14:18;28.18;35.83
70051;SHT30;57391;51.306;22.680;2022-08-25T17:16:45;28.12;36.17
70051;SHT30;57391;51.306;22.680;2022-08-25T17:19:13;28.08;36.80
70051;SHT30;57391;51.306;22.680;2022-08-25T17:21:42;28.02;36.88
70051;SHT30;57391;51.306;22.680;2022-08-25T17:24:12;27.96;37.27
70051;SHT30;57391;51.306;22.680;2022-08-25T17:26:42;27.88;37.18
70051;SHT30;57391;51.306;22.680;2022-08-25T17:29:11;27.80;37.41
70051;SHT30;57391;51.306;22.680;2022-08-25T17:31:39;27.72;38.41
70051;SHT30;57391;51.306;22.680;2022-08-25T17:34:11;27.64;39.53
70051;SHT30;57391;51.306;22.680;2022-08-25T17:36:40;27.56;39.89
70051;SHT30;57391;51.306;22.680;2022-08-25T17:39:08;27.47;40.04
70051;SHT30;57391;51.306;22.680;2022-08-25T17:41:39;27.37;40.61
70051;SHT30;57391;51.306;22.680;2022-08-25T17:44:09;27.28;40.09
70051;SHT30;57391;51.306;22.680;2022-08-25T17:46:38;27.20;40.66
70051;SHT30;57391;51.306;22.680;2022-08-25T17:49:06;27.12;40.42
70051;SHT30;57391;51.306;22.680;2022-08-25T17:51:34;27.04;40.64
70051;SHT30;57391;51.306;22.680;2022-08-25T17:54:01;26.97;40.54
70051;SHT30;57391;51.306;22.680;2022-08-25T17:56:29;26.90;40.67
70051;SHT30;57391;51.306;22.680;2022-08-25T17:58:57;26.85;40.82
70051;SHT30;57391;51.306;22.680;2022-08-25T18:01:25;26.78;41.02
70051;SHT30;57391;51.306;22.680;2022-08-25T18:03:56;26.70;41.28
70051;SHT30;57391;51.306;22.680;2022-08-25T18:06:25;26.61;41.76
70051;SHT30;57391;51.306;22.680;2022-08-25T18:08:57;26.51;42.63
70051;SHT30;57391;51.306;22.680;2022-08-25T18:11:45;26.39;42.82
70051;SHT30;57391;51.306;22.680;2022-08-25T18:14:12;26.31;43.11
70051;SHT30;57391;51.306;22.680;2022-08-25T18:16:42;26.22;43.20
70051;SHT30;57391;51.306;22.680;2022-08-25T18:19:09;26.13;43.49